Time;durP1;ratioP1;P1;durP2;ratioP2;P2;SDS_P1;SDS_P2;PMS_P1;PMS_P2;Temp;Humidity;BMP_temperature;BMP_pressure;BME280_temperature;BME280_humidity;BME280_pressure;Samples;Min_cycle;Max_cycle;Signal;HPM_P1;HPM_P2
2022/12/28 00:01:32;;;;;;;8.60;6.13;;;5.40;99.90;;;;;;5093390;28;20178;-68
2022/12/28 00:04:00;;;;;;;10.97;6.33;;;5.40;99.90;;;;;;5093796;28;20275;-69
2022/12/28 00:06:26;;;;;;;8.93;7.23;;;5.40;99.90;;;;;;5093553;28;20311;-69
2022/12/28 00:08:53;;;;;;;8.20;5.93;;;5.40;99.90;;;;;;5093467;28;20197;-69
2022/12/28 00:11:21;;;;;;;8.53;6.07;;;5.40;99.90;;;;;;5093441;28;20166;-69
2022/12/28 00:13:47;;;;;;;6.80;5.60;;;5.40;99.90;;;;;;5092347;28;20227;-69
2022/12/28 00:16:23;;;;;;;10.70;5.57;;;5.40;99.90;;;;;;5093441;28;20205;-69
2022/12/28 00:18:48;;;;;;;9.13;6.53;;;5.50;99.90;;;;;;5092164;28;20204;-69
2022/12/28 00:21:14;;;;;;;8.27;5.40;;;5.50;99.90;;;;;;5093488;28;20173;-70
2022/12/28 00:23:40;;;;;;;6.30;5.30;;;5.50;99.90;;;;;;5093505;28;20209;-70
2022/12/28 00:26:11;;;;;;;5.23;4.73;;;5.50;99.90;;;;;;5093153;28;20178;-70
2022/12/28 00:28:37;;;;;;;7.07;6.30;;;5.50;99.90;;;;;;5093325;28;20255;-69
2022/12/28 00:31:03;;;;;;;6.10;5.60;;;5.50;99.90;;;;;;5093182;28;20205;-69
2022/12/28 00:33:30;;;;;;;6.97;5.10;;;5.60;99.90;;;;;;5095584;28;20275;-68
2022/12/28 00:35:57;;;;;;;8.23;5.27;;;5.60;99.90;;;;;;5095868;28;20223;-69
2022/12/28 00:38:23;;;;;;;6.90;5.47;;;5.60;99.90;;;;;;5097455;28;20251;-69
2022/12/28 00:40:49;;;;;;;6.90;5.60;;;5.60;99.90;;;;;;5096896;28;20173;-70
2022/12/28 00:43:15;;;;;;;5.97;5.40;;;5.60;99.90;;;;;;5097287;28;20262;-69
2022/12/28 00:45:47;;;;;;;5.83;5.33;;;5.70;99.90;;;;;;5097421;28;20184;-69
2022/12/28 00:48:13;;;;;;;6.67;5.40;;;5.70;99.90;;;;;;5096853;28;20517;-69
2022/12/28 00:50:39;;;;;;;9.17;5.97;;;5.80;99.90;;;;;;5096873;28;20213;-69
2022/12/28 00:53:05;;;;;;;5.80;5.30;;;5.80;99.90;;;;;;5095767;28;20188;-69
2022/12/28 00:55:35;;;;;;;9.33;6.23;;;5.70;99.90;;;;;;5095830;28;20540;-69
2022/12/28 00:58:02;;;;;;;8.33;5.57;;;5.80;99.90;;;;;;5096634;28;20226;-69
2022/12/28 01:00:28;;;;;;;14.07;6.57;;;5.80;99.90;;;;;;5096615;28;20222;-69
2022/12/28 01:02:54;;;;;;;7.27;5.40;;;5.90;99.90;;;;;;5095991;28;20200;-69
2022/12/28 01:05:21;;;;;;;7.73;5.67;;;5.90;99.90;;;;;;5096508;28;20630;-70
2022/12/28 01:07:47;;;;;;;6.53;6.07;;;5.80;99.90;;;;;;5096972;28;20169;-69
2022/12/28 01:10:12;;;;;;;6.47;5.07;;;5.90;99.90;;;;;;5096226;28;20197;-69
2022/12/28 01:12:38;;;;;;;7.60;5.30;;;5.90;99.90;;;;;;5096434;28;20245;-69
2022/12/28 01:15:06;;;;;;;8.87;5.93;;;5.80;99.90;;;;;;5095309;28;20275;-69
2022/12/28 01:17:32;;;;;;;7.13;5.33;;;5.80;99.90;;;;;;5095031;28;20180;-69
2022/12/28 01:19:59;;;;;;;7.67;6.03;;;5.80;99.90;;;;;;5094982;28;20197;-69
2022/12/28 01:22:25;;;;;;;7.30;5.63;;;5.80;99.90;;;;;;5096351;28;20642;-69
2022/12/28 01:24:51;;;;;;;11.13;5.90;;;5.70;99.90;;;;;;5095041;28;20251;-69
2022/12/28 01:27:17;;;;;;;10.03;5.70;;;5.60;99.90;;;;;;5096094;28;20180;-68
2022/12/28 01:29:43;;;;;;;6.20;5.60;;;5.50;99.90;;;;;;5096097;28;20193;-69
2022/12/28 01:32:08;;;;;;;6.47;5.90;;;5.50;99.90;;;;;;5095945;28;20181;-69
2022/12/28 01:34:34;;;;;;;6.10;5.47;;;5.50;99.90;;;;;;5094611;28;20197;-69
2022/12/28 01:37:00;;;;;;;10.00;6.13;;;5.40;99.90;;;;;;5094638;28;20359;-69
2022/12/28 01:39:26;;;;;;;6.43;5.83;;;5.40;99.90;;;;;;5094541;28;20587;-71
2022/12/28 01:41:52;;;;;;;6.50;5.13;;;5.40;99.90;;;;;;5096381;28;20660;-69
2022/12/28 01:44:24;;;;;;;12.00;6.20;;;5.40;99.90;;;;;;5095213;28;20572;-69
2022/12/28 01:47:05;;;;;;;7.97;6.03;;;5.40;99.90;;;;;;5096033;28;20614;-69
2022/12/28 01:49:37;;;;;;;8.03;5.20;;;5.40;99.90;;;;;;5096108;28;20193;-69
2022/12/28 01:52:09;;;;;;;7.77;5.97;;;5.40;99.90;;;;;;5095575;28;20164;-69
2022/12/28 01:54:45;;;;;;;10.30;5.63;;;5.50;99.90;;;;;;5095453;28;20581;-69
2022/12/28 01:57:12;;;;;;;6.90;5.77;;;5.50;99.90;;;;;;5095523;28;20621;-69
2022/12/28 01:59:41;;;;;;;6.37;5.80;;;5.50;99.90;;;;;;5095928;28;20197;-70
2022/12/28 02:02:10;;;;;;;10.07;5.97;;;5.50;99.90;;;;;;5094082;28;20185;-70
2022/12/28 02:04:36;;;;;;;10.97;6.70;;;5.50;99.90;;;;;;5095380;28;20196;-69
2022/12/28 02:07:02;;;;;;;6.83;6.23;;;5.50;99.90;;;;;;5095830;28;20577;-69
2022/12/28 02:09:30;;;;;;;6.30;5.63;;;5.50;99.90;;;;;;5095868;28;20236;-69
2022/12/28 02:11:58;;;;;;;6.57;5.97;;;5.50;99.90;;;;;;5095478;28;20180;-69
2022/12/28 02:14:24;;;;;;;5.77;5.23;;;5.50;99.90;;;;;;5095642;28;20187;-69
2022/12/28 02:16:51;;;;;;;8.00;5.57;;;5.50;99.90;;;;;;5100159;28;20290;-69
2022/12/28 02:19:25;;;;;;;6.13;5.57;;;5.50;99.90;;;;;;5098888;28;20568;-69
2022/12/28 02:22:09;;;;;;;7.27;5.97;;;5.60;99.90;;;;;;5098100;28;20169;-68
2022/12/28 02:25:17;;;;;;;9.73;5.90;;;5.60;99.90;;;;;;5094363;28;20611;-69
2022/12/28 02:27:57;;;;;;;7.90;5.70;;;5.70;99.90;;;;;;5095514;28;20154;-69
2022/12/28 02:30:23;;;;;;;8.97;5.83;;;5.80;99.90;;;;;;5095368;28;20173;-69
2022/12/28 02:33:10;;;;;;;6.57;5.90;;;5.80;99.90;;;;;;5093805;28;20173;-70
2022/12/28 02:36:00;;;;;;;9.17;5.97;;;5.80;99.90;;;;;;5094018;28;20268;-69
2022/12/28 02:38:41;;;;;;;8.43;6.10;;;5.80;99.90;;;;;;5095444;28;20284;-70
2022/12/28 02:41:17;;;;;;;6.40;5.90;;;5.90;99.90;;;;;;5094794;28;20176;-70
2022/12/28 02:43:43;;;;;;;6.37;5.77;;;6.00;99.90;;;;;;5094658;28;20200;-70
2022/12/28 02:52:16;;;;;;;7.17;5.70;;;6.00;99.90;;;;;;5094912;28;20169;-70
2022/12/28 02:57:48;;;;;;;10.83;6.33;;;6.00;99.90;;;;;;5094783;28;20177;-70
2022/12/28 03:00:24;;;;;;;5.80;5.30;;;6.10;99.90;;;;;;5094150;28;20582;-70
2022/12/28 03:03:02;;;;;;;6.00;5.40;;;6.20;99.90;;;;;;5094458;28;20249;-70
2022/12/28 03:08:47;;;;;;;9.50;5.70;;;6.20;99.90;;;;;;5094398;28;20251;-69
2022/12/28 03:11:19;;;;;;;5.67;5.27;;;6.20;99.90;;;;;;5093867;28;20184;-69
2022/12/28 03:13:58;;;;;;;6.27;5.60;;;6.20;99.90;;;;;;5094122;28;20244;-69
2022/12/28 03:16:27;;;;;;;10.90;6.00;;;6.20;99.90;;;;;;5094549;28;20639;-69
2022/12/28 03:33:04;;;;;;;8.80;5.97;;;6.30;99.90;;;;;;5094097;28;20171;-69
2022/12/28 03:35:41;;;;;;;8.67;6.10;;;6.30;99.90;;;;;;5094120;28;20173;-69
2022/12/28 03:38:11;;;;;;;8.73;5.60;;;6.40;99.90;;;;;;5092483;28;20203;-69
2022/12/28 03:40:40;;;;;;;6.57;5.87;;;6.40;99.90;;;;;;5092463;28;20625;-69
2022/12/28 03:46:13;;;;;;;6.30;5.40;;;6.40;99.90;;;;;;5093737;28;20161;-69
2022/12/28 03:48:40;;;;;;;6.83;5.70;;;6.40;99.90;;;;;;5093929;28;20660;-70
2022/12/28 03:51:06;;;;;;;6.50;5.80;;;6.50;99.90;;;;;;5092478;28;20181;-70
2022/12/28 03:53:41;;;;;;;7.77;6.03;;;6.40;99.90;;;;;;5093934;28;20617;-70
2022/12/28 03:56:16;;;;;;;7.93;6.47;;;6.40;99.90;;;;;;5092691;28;20189;-70
2022/12/28 03:58:42;;;;;;;7.00;5.47;;;6.40;99.90;;;;;;5093762;28;20668;-69
2022/12/28 04:01:08;;;;;;;8.70;5.83;;;6.50;99.90;;;;;;5093430;28;20189;-70
2022/12/28 04:03:34;;;;;;;10.37;6.40;;;6.50;99.90;;;;;;5092112;28;20240;-69
2022/12/28 04:06:00;;;;;;;8.10;6.30;;;6.50;99.90;;;;;;5092081;28;20543;-70
2022/12/28 04:08:26;;;;;;;6.30;5.70;;;6.50;99.90;;;;;;5094385;28;20236;-70
2022/12/28 04:10:52;;;;;;;9.23;6.07;;;6.50;99.90;;;;;;5096505;28;20633;-69
2022/12/28 04:13:18;;;;;;;8.03;5.77;;;6.60;99.90;;;;;;5097505;28;20184;-69
2022/12/28 04:15:53;;;;;;;8.13;6.10;;;6.50;99.90;;;;;;5097439;28;20176;-69
2022/12/28 04:18:19;;;;;;;7.67;5.73;;;6.60;99.90;;;;;;5097582;28;20687;-69
2022/12/28 04:20:44;;;;;;;8.20;5.57;;;6.60;99.90;;;;;;5097264;28;20173;-69
2022/12/28 04:23:10;;;;;;;8.67;5.50;;;6.60;99.90;;;;;;5097232;28;20216;-70
2022/12/28 04:25:36;;;;;;;6.57;5.97;;;6.60;99.90;;;;;;5097129;28;20203;-70
2022/12/28 04:28:01;;;;;;;5.93;5.43;;;6.60;99.90;;;;;;5097127;28;20169;-69
2022/12/28 04:30:27;;;;;;;8.57;5.77;;;6.70;99.90;;;;;;5097113;28;20207;-69
2022/12/28 04:32:54;;;;;;;5.97;5.37;;;6.70;99.90;;;;;;5096896;28;20656;-70
2022/12/28 04:35:20;;;;;;;5.60;5.20;;;6.70;99.90;;;;;;5097696;28;20197;-69
2022/12/28 04:37:46;;;;;;;6.67;5.57;;;6.70;99.90;;;;;;5097055;28;20258;-69
2022/12/28 04:40:11;;;;;;;6.17;5.57;;;6.70;99.90;;;;;;5097188;28;20204;-69
2022/12/28 04:42:37;;;;;;;6.83;5.60;;;6.70;99.90;;;;;;5097173;28;20180;-70
2022/12/28 04:45:03;;;;;;;7.63;6.03;;;6.70;99.90;;;;;;5097433;28;20207;-69
2022/12/28 04:47:29;;;;;;;7.23;5.80;;;6.70;99.90;;;;;;5096709;28;20256;-69
2022/12/28 04:49:55;;;;;;;6.07;5.57;;;6.70;99.90;;;;;;5096770;28;20271;-68
2022/12/28 04:52:21;;;;;;;8.60;5.83;;;6.80;99.90;;;;;;5095440;28;20277;-68
2022/12/28 04:54:47;;;;;;;7.93;5.90;;;6.90;99.90;;;;;;5096567;28;20184;-70
2022/12/28 04:57:13;;;;;;;6.27;5.40;;;6.90;99.90;;;;;;5096865;28;20177;-69
2022/12/28 04:59:39;;;;;;;6.90;5.10;;;7.00;99.90;;;;;;5095285;28;20617;-68
2022/12/28 05:02:05;;;;;;;6.90;5.27;;;7.00;99.90;;;;;;5096540;28;20181;-68
2022/12/28 05:04:31;;;;;;;6.20;5.60;;;6.90;99.90;;;;;;5096781;28;20569;-69
2022/12/28 05:06:57;;;;;;;6.57;5.30;;;7.00;99.90;;;;;;5096555;28;20169;-69
2022/12/28 05:09:23;;;;;;;6.33;5.73;;;7.00;99.90;;;;;;5097166;28;20710;-69
2022/12/28 05:11:49;;;;;;;6.63;6.03;;;6.90;99.90;;;;;;5096318;28;20198;-68
2022/12/28 05:14:14;;;;;;;6.23;5.63;;;7.00;99.90;;;;;;5096402;28;20178;-69
2022/12/28 05:16:40;;;;;;;7.67;6.00;;;7.00;99.90;;;;;;5096895;28;20177;-68
2022/12/28 05:19:06;;;;;;;6.43;5.40;;;7.00;99.90;;;;;;5095130;28;20201;-68
2022/12/28 05:21:32;;;;;;;6.40;5.80;;;6.90;99.90;;;;;;5096153;28;20173;-68
2022/12/28 05:23:58;;;;;;;6.27;5.67;;;7.00;99.90;;;;;;5096084;28;20566;-68
2022/12/28 05:26:27;;;;;;;6.77;5.90;;;7.00;99.90;;;;;;5096221;28;20264;-68
2022/12/28 05:28:55;;;;;;;6.50;5.57;;;7.00;99.90;;;;;;5096461;28;20189;-69
2022/12/28 05:31:22;;;;;;;8.40;6.23;;;6.90;99.90;;;;;;5094607;28;20285;-67
2022/12/28 05:33:48;;;;;;;6.30;5.50;;;6.90;99.90;;;;;;5094582;28;20570;-69
2022/12/28 05:36:16;;;;;;;7.90;5.97;;;6.80;99.90;;;;;;5094648;28;20181;-68
2022/12/28 05:38:43;;;;;;;6.33;5.47;;;6.80;99.90;;;;;;5094582;28;20228;-68
2022/12/28 05:41:16;;;;;;;5.77;5.27;;;6.80;99.90;;;;;;5095738;28;20260;-69
2022/12/28 05:43:42;;;;;;;5.87;5.37;;;6.90;99.90;;;;;;5096044;28;20204;-69
2022/12/28 05:46:10;;;;;;;6.17;5.57;;;6.90;99.90;;;;;;5095638;28;20196;-70
2022/12/28 05:48:38;;;;;;;6.27;5.40;;;6.80;99.90;;;;;;5095568;28;20229;-69
2022/12/28 05:51:07;;;;;;;6.17;5.57;;;6.90;99.90;;;;;;5094881;28;20615;-70
2022/12/28 05:53:34;;;;;;;6.03;5.30;;;6.90;99.90;;;;;;5095685;28;20520;-69
2022/12/28 05:56:02;;;;;;;6.50;5.90;;;6.90;99.90;;;;;;5094175;28;20235;-69
2022/12/28 05:58:28;;;;;;;8.03;6.67;;;6.90;99.90;;;;;;5095602;28;20193;-69
2022/12/28 06:00:53;;;;;;;6.53;5.23;;;6.90;99.90;;;;;;5094066;28;20195;-70
2022/12/28 06:03:19;;;;;;;6.07;5.40;;;6.90;99.90;;;;;;5095357;28;20201;-69
2022/12/28 06:05:45;;;;;;;5.67;5.27;;;6.90;99.90;;;;;;5095331;28;20238;-69
2022/12/28 06:08:10;;;;;;;7.13;5.30;;;7.00;99.90;;;;;;5095193;28;20212;-69
2022/12/28 06:10:36;;;;;;;7.23;5.67;;;7.00;99.90;;;;;;5093825;28;20259;-69
2022/12/28 06:13:02;;;;;;;7.10;5.20;;;7.00;99.90;;;;;;5095442;28;20205;-69
2022/12/28 06:15:28;;;;;;;5.30;4.90;;;7.00;99.90;;;;;;5095054;28;20174;-70
2022/12/28 06:17:53;;;;;;;6.03;5.53;;;6.90;99.90;;;;;;5095066;28;20173;-69
2022/12/28 06:20:19;;;;;;;6.47;5.97;;;6.90;99.90;;;;;;5095096;28;20192;-69
2022/12/28 06:22:45;;;;;;;5.83;5.30;;;6.90;99.90;;;;;;5095180;28;20197;-70
2022/12/28 06:25:10;;;;;;;6.77;5.10;;;7.00;99.90;;;;;;5095338;28;20219;-70
2022/12/28 06:27:36;;;;;;;6.40;5.63;;;6.90;99.90;;;;;;5094838;28;20637;-70
2022/12/28 06:30:02;;;;;;;5.33;4.87;;;7.00;99.90;;;;;;5093209;28;20255;-69
2022/12/28 06:32:27;;;;;;;7.23;5.13;;;7.00;99.90;;;;;;5095037;28;20173;-69
2022/12/28 06:34:53;;;;;;;5.63;5.13;;;7.00;99.90;;;;;;5094651;28;20193;-69
2022/12/28 06:37:19;;;;;;;5.50;5.07;;;7.00;99.90;;;;;;5094748;28;20256;-70
2022/12/28 06:39:44;;;;;;;5.47;4.97;;;7.00;99.90;;;;;;5094570;28;20608;-69
2022/12/28 06:42:10;;;;;;;5.30;4.90;;;7.00;99.90;;;;;;5094508;28;20180;-70
2022/12/28 06:44:36;;;;;;;8.37;5.07;;;7.10;99.90;;;;;;5094497;28;20635;-69
2022/12/28 06:47:02;;;;;;;5.33;4.93;;;7.10;99.90;;;;;;5094444;28;20173;-69
2022/12/28 06:49:27;;;;;;;6.43;5.17;;;7.00;99.90;;;;;;5094405;28;20236;-69
2022/12/28 06:51:53;;;;;;;5.37;4.87;;;7.00;99.90;;;;;;5094974;28;20207;-69
2022/12/28 06:54:19;;;;;;;5.50;5.00;;;7.00;99.90;;;;;;5094426;28;20636;-69
2022/12/28 06:56:44;;;;;;;5.30;4.80;;;7.00;99.90;;;;;;5093213;28;20181;-69
2022/12/28 06:59:10;;;;;;;6.40;4.57;;;7.00;99.90;;;;;;5094501;28;20193;-69
2022/12/28 07:01:39;;;;;;;5.03;4.60;;;7.00;99.90;;;;;;5094459;28;20286;-69
2022/12/28 07:04:07;;;;;;;5.10;4.70;;;7.10;99.90;;;;;;5093012;28;20244;-69
2022/12/28 07:06:50;;;;;;;5.10;4.70;;;7.00;99.90;;;;;;5094726;28;20176;-69
2022/12/28 07:09:16;;;;;;;4.80;4.43;;;7.10;99.90;;;;;;5094686;28;20660;-69
2022/12/28 07:11:43;;;;;;;6.67;5.60;;;7.00;99.90;;;;;;5094014;28;20203;-70
2022/12/28 07:14:09;;;;;;;5.83;5.00;;;7.10;99.90;;;;;;5093043;28;20610;-69
2022/12/28 07:16:35;;;;;;;6.40;5.07;;;7.10;99.90;;;;;;5092715;28;20208;-69
2022/12/28 07:19:00;;;;;;;5.33;4.90;;;7.00;99.90;;;;;;5093912;28;20193;-68
2022/12/28 07:21:32;;;;;;;5.47;4.73;;;7.10;99.90;;;;;;5094384;28;20188;-69
2022/12/28 07:23:58;;;;;;;5.37;4.97;;;7.10;99.90;;;;;;5094061;28;20247;-69
2022/12/28 07:26:27;;;;;;;5.33;4.87;;;7.00;99.90;;;;;;5093764;28;20523;-69
2022/12/28 07:28:55;;;;;;;5.03;4.63;;;7.00;99.90;;;;;;5094031;28;20268;-72
2022/12/28 07:31:30;;;;;;;5.47;4.97;;;7.00;99.90;;;;;;5092567;28;20561;-69
2022/12/28 07:33:58;;;;;;;5.40;5.00;;;7.00;99.90;;;;;;5094141;28;20541;-71
2022/12/28 07:36:24;;;;;;;5.30;4.90;;;7.00;99.90;;;;;;5093713;28;20268;-68
2022/12/28 07:38:51;;;;;;;5.93;5.43;;;7.00;99.90;;;;;;5093741;28;20227;-69
2022/12/28 07:41:20;;;;;;;5.77;5.27;;;7.00;99.90;;;;;;5092553;28;20207;-69
2022/12/28 07:43:46;;;;;;;5.30;4.90;;;7.10;99.90;;;;;;5092857;28;20201;-70
2022/12/28 07:46:15;;;;;;;5.70;5.30;;;7.10;99.90;;;;;;5093753;28;20169;-71
2022/12/28 07:48:42;;;;;;;5.53;5.13;;;7.00;99.90;;;;;;5093909;28;20195;-70
2022/12/28 07:51:29;;;;;;;6.27;5.20;;;7.00;99.90;;;;;;5093730;28;20188;-71
2022/12/28 07:53:56;;;;;;;5.00;4.70;;;7.00;99.90;;;;;;5093891;28;20161;-70
2022/12/28 07:56:24;;;;;;;5.23;4.73;;;7.10;99.90;;;;;;5093846;28;20185;-70
2022/12/28 07:58:55;;;;;;;5.60;5.17;;;7.10;99.90;;;;;;5093893;28;20197;-70
2022/12/28 08:01:23;;;;;;;5.37;4.87;;;7.10;99.90;;;;;;5093891;28;20212;-70
2022/12/28 08:03:53;;;;;;;6.00;5.40;;;7.10;99.90;;;;;;5093884;28;20233;-70
2022/12/28 08:06:22;;;;;;;6.43;5.10;;;7.10;99.90;;;;;;5093862;28;20162;-69
2022/12/28 08:08:51;;;;;;;5.07;4.67;;;7.10;99.90;;;;;;5093797;28;20237;-71
2022/12/28 08:11:20;;;;;;;5.70;5.30;;;7.10;99.90;;;;;;5093502;28;20169;-71
2022/12/28 08:13:48;;;;;;;6.10;5.03;;;7.10;99.90;;;;;;5094607;28;20667;-71
2022/12/28 08:16:15;;;;;;;6.80;5.17;;;7.10;99.90;;;;;;5092920;28;20181;-71
2022/12/28 08:18:41;;;;;;;5.63;5.10;;;7.20;99.90;;;;;;5092848;28;20715;-71
2022/12/28 08:21:11;;;;;;;5.70;5.20;;;7.20;99.90;;;;;;5092646;28;20181;-70
2022/12/28 08:23:36;;;;;;;5.90;5.40;;;7.20;99.90;;;;;;5093699;28;20245;-71
2022/12/28 08:26:05;;;;;;;6.23;5.10;;;7.20;99.90;;;;;;5092286;28;20264;-71
2022/12/28 08:28:31;;;;;;;5.17;4.77;;;7.20;99.90;;;;;;5091965;28;20201;-71
2022/12/28 08:30:57;;;;;;;4.97;4.67;;;7.20;99.90;;;;;;5093113;28;20181;-71
2022/12/28 08:33:23;;;;;;;4.93;4.53;;;7.20;99.90;;;;;;5093047;28;20185;-71
2022/12/28 08:35:48;;;;;;;5.20;4.73;;;7.30;99.90;;;;;;5091788;28;20170;-70
2022/12/28 08:38:14;;;;;;;5.50;5.00;;;7.30;99.90;;;;;;5091632;28;20174;-70
2022/12/28 08:40:40;;;;;;;5.00;4.60;;;7.30;99.90;;;;;;5092858;28;20169;-70
2022/12/28 08:43:05;;;;;;;5.13;4.73;;;7.40;99.90;;;;;;5092887;28;20626;-70
2022/12/28 08:45:31;;;;;;;5.33;4.93;;;7.40;99.90;;;;;;5092939;28;20264;-71
2022/12/28 08:47:57;;;;;;;4.93;4.57;;;7.40;99.90;;;;;;5093013;28;20203;-71
2022/12/28 08:50:22;;;;;;;4.67;4.37;;;7.40;99.90;;;;;;5092871;28;20216;-71
2022/12/28 08:52:48;;;;;;;4.83;4.43;;;7.50;99.90;;;;;;5092936;28;20638;-71
2022/12/28 08:55:14;;;;;;;4.50;4.20;;;7.50;99.90;;;;;;5096168;28;20173;-70
2022/12/28 08:57:40;;;;;;;4.73;4.43;;;7.50;99.90;;;;;;5095395;28;20177;-71
2022/12/28 09:00:06;;;;;;;4.50;4.20;;;7.50;99.90;;;;;;5096391;28;20197;-70
2022/12/28 09:02:32;;;;;;;4.70;4.40;;;7.50;99.90;;;;;;5096453;28;20203;-71
2022/12/28 09:04:58;;;;;;;4.40;4.13;;;7.50;99.90;;;;;;5096404;28;20201;-71
2022/12/28 09:07:23;;;;;;;4.20;3.90;;;7.50;99.90;;;;;;5095660;28;20205;-71
2022/12/28 09:09:49;;;;;;;4.80;4.40;;;7.50;99.90;;;;;;5096519;28;20665;-71
2022/12/28 09:12:15;;;;;;;4.87;4.47;;;7.50;99.90;;;;;;5095011;28;20255;-71
2022/12/28 09:14:40;;;;;;;4.40;4.10;;;7.50;99.90;;;;;;5096528;28;20184;-70
2022/12/28 09:17:06;;;;;;;4.57;4.23;;;7.50;99.90;;;;;;5096338;28;20200;-70
2022/12/28 09:19:32;;;;;;;4.60;4.30;;;7.50;99.90;;;;;;5094854;28;20262;-71
2022/12/28 09:21:57;;;;;;;4.70;4.40;;;7.60;99.90;;;;;;5096191;28;20252;-71
2022/12/28 09:24:23;;;;;;;4.93;4.37;;;7.60;99.90;;;;;;5096420;28;20204;-71
2022/12/28 09:26:51;;;;;;;4.90;4.47;;;7.60;99.90;;;;;;5096197;28;20612;-71
2022/12/28 09:29:17;;;;;;;4.87;4.57;;;7.60;99.90;;;;;;5094721;28;20288;-71
2022/12/28 09:31:43;;;;;;;4.37;4.07;;;7.60;99.90;;;;;;5095902;28;20267;-71
2022/12/28 09:34:12;;;;;;;6.03;4.57;;;7.70;99.90;;;;;;5095814;28;20193;-70
2022/12/28 09:36:42;;;;;;;4.60;4.30;;;7.70;99.90;;;;;;5094731;28;20180;-71
2022/12/28 09:39:15;;;;;;;4.60;4.20;;;7.70;99.90;;;;;;5095716;28;20246;-71
2022/12/28 09:41:47;;;;;;;4.27;4.07;;;7.80;99.90;;;;;;5094435;28;20181;-71
2022/12/28 09:44:15;;;;;;;4.50;4.10;;;7.80;99.90;;;;;;5094372;28;20223;-70
2022/12/28 09:46:59;;;;;;;5.60;4.60;;;7.80;99.90;;;;;;5094345;28;20192;-71
2022/12/28 09:49:46;;;;;;;4.60;4.30;;;7.80;99.90;;;;;;5095505;28;20195;-71
2022/12/28 09:52:29;;;;;;;5.37;4.33;;;7.80;99.90;;;;;;5095549;28;20174;-71
2022/12/28 09:55:00;;;;;;;4.33;4.10;;;7.90;99.90;;;;;;5095446;28;20621;-71
2022/12/28 09:57:37;;;;;;;4.63;4.30;;;7.90;99.90;;;;;;5095375;28;20524;-71
2022/12/28 10:00:05;;;;;;;4.53;4.00;;;8.00;99.90;;;;;;5095549;28;20192;-71
2022/12/28 10:02:36;;;;;;;4.40;4.10;;;8.00;99.90;;;;;;5095347;28;20265;-71
2022/12/28 10:05:02;;;;;;;4.10;3.90;;;8.10;99.90;;;;;;5094690;28;20665;-70
2022/12/28 10:07:27;;;;;;;4.50;4.20;;;8.10;99.90;;;;;;5093873;28;20226;-71
2022/12/28 10:09:53;;;;;;;4.60;4.20;;;8.10;99.90;;;;;;5095090;28;20201;-71
2022/12/28 10:12:23;;;;;;;6.67;4.50;;;8.20;99.90;;;;;;5095146;28;20219;-71
2022/12/28 10:14:51;;;;;;;4.60;4.20;;;8.20;99.90;;;;;;5093756;28;20225;-70
2022/12/28 10:17:23;;;;;;;4.97;4.43;;;8.20;99.90;;;;;;5095339;28;20181;-71
2022/12/28 10:19:49;;;;;;;4.30;4.00;;;8.20;99.90;;;;;;5095037;28;20193;-71
2022/12/28 10:22:21;;;;;;;4.87;4.43;;;8.20;99.90;;;;;;5093735;28;20203;-71
2022/12/28 10:24:47;;;;;;;4.50;4.20;;;8.30;99.90;;;;;;5094860;28;20205;-71
2022/12/28 10:27:28;;;;;;;4.77;4.30;;;8.30;99.90;;;;;;5093500;28;20646;-70
2022/12/28 10:29:54;;;;;;;4.80;4.40;;;8.30;99.90;;;;;;5094915;28;20671;-71
2022/12/28 10:32:20;;;;;;;4.67;4.37;;;8.30;99.90;;;;;;5095047;28;20165;-70
2022/12/28 10:35:00;;;;;;;4.60;4.20;;;8.30;99.90;;;;;;5094622;28;20267;-71
2022/12/28 10:37:29;;;;;;;5.20;4.70;;;8.30;99.90;;;;;;5093412;28;20176;-70
2022/12/28 10:40:02;;;;;;;5.90;4.50;;;8.30;99.90;;;;;;5094546;28;20193;-71
2022/12/28 10:42:35;;;;;;;4.50;4.20;;;8.40;99.90;;;;;;5094553;28;20617;-70
2022/12/28 10:45:13;;;;;;;4.33;4.03;;;8.40;99.90;;;;;;5094751;28;20185;-71
2022/12/28 10:47:45;;;;;;;4.50;4.20;;;8.40;99.90;;;;;;5093294;28;20547;-71
2022/12/28 10:50:38;;;;;;;4.33;4.00;;;8.40;99.90;;;;;;5095398;28;20193;-69
2022/12/28 10:53:14;;;;;;;4.30;4.10;;;8.40;99.90;;;;;;5093322;28;20173;-69
2022/12/28 10:55:40;;;;;;;5.77;4.37;;;8.40;99.90;;;;;;5094331;28;20161;-71
2022/12/28 10:58:22;;;;;;;4.77;4.37;;;8.40;99.90;;;;;;5094367;28;20222;-71
2022/12/28 11:00:56;;;;;;;6.00;4.60;;;8.50;99.90;;;;;;5094431;28;20204;-70
2022/12/28 11:03:34;;;;;;;5.43;5.03;;;8.50;99.90;;;;;;5094838;28;20499;-71
2022/12/28 11:06:20;;;;;;;4.20;3.93;;;8.50;99.90;;;;;;5094582;28;20617;-69
2022/12/28 11:08:59;;;;;;;4.03;3.83;;;8.50;99.90;;;;;;5094211;28;20215;-70
2022/12/28 11:11:25;;;;;;;4.03;3.80;;;8.60;99.90;;;;;;5093074;28;20157;-71
2022/12/28 11:14:13;;;;;;;5.77;4.10;;;8.60;99.90;;;;;;5093300;28;20177;-70
2022/12/28 11:16:40;;;;;;;4.27;3.87;;;8.60;99.90;;;;;;5093493;28;20217;-71
2022/12/28 11:19:06;;;;;;;4.67;4.23;;;8.60;99.90;;;;;;5093930;28;20203;-71
2022/12/28 11:21:33;;;;;;;5.53;3.80;;;8.60;99.90;;;;;;5093995;28;20263;-71
2022/12/28 11:23:59;;;;;;;4.90;4.20;;;8.60;99.90;;;;;;5092917;28;20246;-71
2022/12/28 11:26:27;;;;;;;5.53;4.17;;;8.70;99.90;;;;;;5094051;28;20541;-70
2022/12/28 11:28:53;;;;;;;5.03;4.30;;;8.70;99.90;;;;;;5094793;28;20621;-70
2022/12/28 11:31:46;;;;;;;4.33;3.87;;;8.70;99.90;;;;;;5094598;28;20185;-70
2022/12/28 11:34:17;;;;;;;3.87;3.43;;;8.80;99.90;;;;;;5093859;28;20201;-70
2022/12/28 11:36:43;;;;;;;4.30;4.00;;;8.90;99.90;;;;;;5092794;28;20213;-70
2022/12/28 11:39:24;;;;;;;4.50;4.20;;;8.90;99.90;;;;;;5093297;28;20295;-69
2022/12/28 11:41:54;;;;;;;4.13;3.83;;;9.00;99.90;;;;;;5094972;28;20535;-70
2022/12/28 11:44:40;;;;;;;4.00;3.60;;;9.00;99.90;;;;;;5095165;28;20212;-70
2022/12/28 11:47:14;;;;;;;4.60;4.30;;;9.00;99.90;;;;;;5093840;28;20200;-70
2022/12/28 11:49:41;;;;;;;4.53;4.20;;;9.00;99.90;;;;;;5092182;28;20577;-70
2022/12/28 11:52:43;;;;;;;4.20;3.80;;;9.00;99.90;;;;;;5093488;28;20198;-70
2022/12/28 11:55:20;;;;;;;4.47;4.07;;;9.00;99.90;;;;;;5092160;28;20280;-69
2022/12/28 11:57:46;;;;;;;4.80;4.00;;;9.00;99.90;;;;;;5093422;28;20574;-71
2022/12/28 12:00:18;;;;;;;4.40;4.07;;;9.00;99.90;;;;;;5093193;28;20212;-71
2022/12/28 12:03:00;;;;;;;5.03;4.63;;;9.00;99.90;;;;;;5093350;28;20177;-72
2022/12/28 12:05:35;;;;;;;4.23;3.93;;;9.10;99.90;;;;;;5093833;28;20191;-71
2022/12/28 12:08:11;;;;;;;4.67;4.27;;;9.10;99.90;;;;;;5091972;28;20164;-71
2022/12/28 12:10:38;;;;;;;4.77;4.30;;;9.20;99.90;;;;;;5093232;28;20218;-71
2022/12/28 12:13:25;;;;;;;5.27;3.83;;;9.20;99.90;;;;;;5092006;28;20173;-71
2022/12/28 12:15:57;;;;;;;6.93;4.27;;;9.20;99.90;;;;;;5092031;28;20614;-71
2022/12/28 12:18:25;;;;;;;4.27;3.73;;;9.20;99.90;;;;;;5093450;28;20565;-71
2022/12/28 12:20:56;;;;;;;4.23;3.83;;;9.10;99.90;;;;;;5093171;28;20177;-71
2022/12/28 12:23:40;;;;;;;6.20;4.10;;;9.10;99.90;;;;;;5091809;28;20260;-71
2022/12/28 12:26:28;;;;;;;7.53;4.37;;;9.10;99.90;;;;;;5091843;28;20264;-71
2022/12/28 12:29:23;;;;;;;4.47;4.07;;;9.10;99.90;;;;;;5094890;28;20193;-70
2022/12/28 12:32:34;;;;;;;5.00;4.57;;;9.10;99.90;;;;;;5096285;28;20196;-69
2022/12/28 12:35:05;;;;;;;3.77;3.57;;;9.10;99.90;;;;;;5096723;28;20192;-70
2022/12/28 12:37:40;;;;;;;4.77;3.97;;;9.10;99.90;;;;;;5097038;28;20173;-69
2022/12/28 12:40:08;;;;;;;4.63;4.10;;;9.00;99.90;;;;;;5096874;28;20279;-70
2022/12/28 12:43:02;;;;;;;4.70;4.27;;;9.00;99.90;;;;;;5096855;28;20172;-70
2022/12/28 12:45:49;;;;;;;4.40;4.10;;;9.00;99.90;;;;;;5096788;28;20197;-70
2022/12/28 12:48:59;;;;;;;4.10;3.80;;;9.10;99.90;;;;;;5096792;28;20168;-70
2022/12/28 12:52:06;;;;;;;4.30;4.00;;;9.10;99.90;;;;;;5088290;28;20186;-70
2022/12/28 12:54:32;;;;;;;4.83;4.37;;;9.10;99.90;;;;;;5096989;28;20613;-70
2022/12/28 12:57:12;;;;;;;4.20;3.90;;;9.20;99.90;;;;;;5096524;28;20174;-69
2022/12/28 13:00:03;;;;;;;7.70;4.47;;;9.20;99.90;;;;;;5096574;28;20269;-69
2022/12/28 13:02:51;;;;;;;7.13;4.50;;;9.20;99.90;;;;;;5096550;28;20165;-69
2022/12/28 13:05:20;;;;;;;4.80;4.40;;;9.20;99.90;;;;;;5095127;28;20664;-69
2022/12/28 13:07:47;;;;;;;4.40;4.10;;;9.20;99.90;;;;;;5096460;28;20193;-69
2022/12/28 13:10:26;;;;;;;5.97;4.87;;;9.20;99.90;;;;;;5097416;28;20268;-70
2022/12/28 13:12:57;;;;;;;5.70;4.47;;;9.10;99.90;;;;;;5094956;28;20169;-70
2022/12/28 13:15:23;;;;;;;4.70;4.27;;;9.10;99.90;;;;;;5094993;28;20541;-70
2022/12/28 13:18:05;;;;;;;4.57;4.00;;;9.10;99.90;;;;;;5096221;28;20173;-70
2022/12/28 13:20:31;;;;;;;4.50;4.10;;;9.10;99.90;;;;;;5096516;28;20177;-70
2022/12/28 13:22:57;;;;;;;6.30;4.40;;;9.10;99.90;;;;;;5094899;28;20189;-70
2022/12/28 13:25:29;;;;;;;5.97;4.47;;;9.00;99.90;;;;;;5096031;28;20289;-69
2022/12/28 13:27:58;;;;;;;4.37;3.97;;;9.00;99.90;;;;;;5094614;28;20605;-69
2022/12/28 13:30:25;;;;;;;6.30;4.50;;;9.00;99.90;;;;;;5095827;28;20209;-69
2022/12/28 13:32:57;;;;;;;5.37;3.80;;;9.00;99.90;;;;;;5096012;28;20177;-70
2022/12/28 13:35:27;;;;;;;4.57;4.13;;;9.00;99.90;;;;;;5096064;28;20267;-69
2022/12/28 13:38:07;;;;;;;5.17;4.67;;;9.00;99.90;;;;;;5094658;28;20185;-69
2022/12/28 13:40:34;;;;;;;5.10;4.23;;;8.90;99.90;;;;;;5094819;28;20244;-68
2022/12/28 13:43:39;;;;;;;4.90;4.50;;;8.90;99.90;;;;;;5095784;28;20248;-68